Time;durP1;ratioP1;P1;durP2;ratioP2;P2;SDS_P1;SDS_P2;PMS_P1;PMS_P2;Temp;Humidity;BMP_temperature;BMP_pressure;BME280_temperature;BME280_humidity;BME280_pressure;Samples;Min_cycle;Max_cycle;Signal;HPM_P1;HPM_P2
2022/07/05 00:01:00;;;;;;;3.47;2.57;;;21.80;55.40;;;;;;4994245;28;20456;-70
2022/07/05 00:03:27;;;;;;;6.00;2.63;;;21.80;55.60;;;;;;4994087;28;20464;-70
2022/07/05 00:05:54;;;;;;;3.27;2.73;;;21.70;55.90;;;;;;4993982;28;20456;-70
2022/07/05 00:08:21;;;;;;;5.87;2.17;;;21.60;56.00;;;;;;4994125;28;20819;-70
2022/07/05 00:10:48;;;;;;;3.97;2.63;;;21.60;56.20;;;;;;4994043;28;20488;-70
2022/07/05 00:13:16;;;;;;;3.00;2.70;;;21.60;56.30;;;;;;4994038;28;20455;-70
2022/07/05 00:15:43;;;;;;;3.93;2.63;;;21.60;56.50;;;;;;4994068;28;20448;-70
2022/07/05 00:18:10;;;;;;;6.83;2.40;;;21.50;56.50;;;;;;4993766;28;20826;-70
2022/07/05 00:20:37;;;;;;;2.53;2.30;;;21.50;56.60;;;;;;4994072;28;20455;-70
2022/07/05 00:23:04;;;;;;;4.60;3.17;;;21.50;56.70;;;;;;4994088;28;20456;-69
2022/07/05 00:25:31;;;;;;;3.03;2.83;;;21.40;56.80;;;;;;4994992;28;20489;-70
2022/07/05 00:27:57;;;;;;;3.40;2.40;;;21.40;56.90;;;;;;4993676;28;20452;-70
2022/07/05 00:30:26;;;;;;;3.30;2.17;;;21.40;57.00;;;;;;4993851;28;20491;-70
2022/07/05 00:32:53;;;;;;;6.30;3.13;;;21.30;57.10;;;;;;4993802;28;20444;-70
2022/07/05 00:35:20;;;;;;;3.70;2.30;;;21.30;57.10;;;;;;4993774;28;20475;-70
2022/07/05 00:37:47;;;;;;;3.37;2.53;;;21.30;57.20;;;;;;4993888;28;20449;-70
2022/07/05 00:40:14;;;;;;;3.60;2.67;;;21.30;57.20;;;;;;4996330;28;20459;-70
2022/07/05 00:42:41;;;;;;;3.10;2.77;;;21.30;57.30;;;;;;4997292;28;20444;-70
2022/07/05 00:45:10;;;;;;;3.93;2.60;;;21.20;57.30;;;;;;4997266;28;21023;-70
2022/07/05 00:47:38;;;;;;;3.60;3.00;;;21.20;57.50;;;;;;4997714;28;20453;-70
2022/07/05 00:50:06;;;;;;;2.50;2.33;;;21.20;57.50;;;;;;4997515;28;20490;-70
2022/07/05 00:52:33;;;;;;;4.00;2.77;;;21.10;57.80;;;;;;4997577;28;20462;-70
2022/07/05 00:55:01;;;;;;;3.07;2.80;;;21.00;57.80;;;;;;4997428;28;20479;-70
2022/07/05 00:57:28;;;;;;;3.63;2.70;;;20.90;57.90;;;;;;4997212;28;20842;-70
2022/07/05 00:59:55;;;;;;;3.00;2.80;;;20.90;58.00;;;;;;4997136;28;20448;-70
2022/07/05 01:02:23;;;;;;;3.33;3.03;;;20.80;58.20;;;;;;4997295;28;20455;-70
2022/07/05 01:04:52;;;;;;;3.70;2.90;;;20.80;58.30;;;;;;4997222;28;20912;-70
2022/07/05 01:07:20;;;;;;;2.97;2.70;;;20.70;58.50;;;;;;4997211;28;20452;-70
2022/07/05 01:09:47;;;;;;;2.83;2.60;;;20.60;58.60;;;;;;4996692;28;20452;-70
2022/07/05 01:12:14;;;;;;;4.73;3.23;;;20.60;58.80;;;;;;4997053;28;20463;-70
2022/07/05 01:14:43;;;;;;;4.30;3.50;;;20.50;58.90;;;;;;4996821;28;20987;-70
2022/07/05 01:17:10;;;;;;;4.47;3.00;;;20.40;59.00;;;;;;4996764;28;20483;-70
2022/07/05 01:19:38;;;;;;;2.73;2.50;;;20.30;59.00;;;;;;4997030;28;20447;-70
2022/07/05 01:22:18;;;;;;;3.50;2.90;;;20.20;59.10;;;;;;4996616;28;20452;-70
2022/07/05 01:24:46;;;;;;;2.90;2.70;;;20.20;59.20;;;;;;4996902;28;20522;-70
2022/07/05 01:27:14;;;;;;;2.97;2.70;;;20.10;59.20;;;;;;4997367;28;20436;-70
2022/07/05 01:29:42;;;;;;;4.23;2.83;;;20.10;59.30;;;;;;4996564;28;20948;-70
2022/07/05 01:32:09;;;;;;;2.97;2.77;;;20.10;59.50;;;;;;4996773;28;20448;-70
2022/07/05 01:34:39;;;;;;;3.20;2.80;;;20.00;59.60;;;;;;4996413;28;20468;-70
2022/07/05 01:37:06;;;;;;;3.20;2.80;;;19.90;59.90;;;;;;4996601;28;20510;-70
2022/07/05 01:39:34;;;;;;;2.93;2.73;;;19.90;60.70;;;;;;4996590;28;20444;-70
2022/07/05 01:42:03;;;;;;;3.80;3.50;;;19.80;60.80;;;;;;4996461;28;20452;-70
2022/07/05 01:44:31;;;;;;;3.50;2.60;;;19.80;61.40;;;;;;4996086;28;20956;-70
2022/07/05 01:47:04;;;;;;;4.10;3.10;;;19.80;61.90;;;;;;4996379;28;20451;-70
2022/07/05 01:49:35;;;;;;;4.47;2.73;;;19.70;62.30;;;;;;4996412;28;20441;-70
2022/07/05 01:52:09;;;;;;;3.40;3.10;;;19.70;63.10;;;;;;4995739;28;20491;-70
2022/07/05 01:54:37;;;;;;;3.33;3.03;;;19.70;63.60;;;;;;4996464;28;20542;-70
2022/07/05 01:57:07;;;;;;;2.53;2.37;;;19.70;64.00;;;;;;4996392;28;20445;-70
2022/07/05 01:59:34;;;;;;;3.50;3.20;;;19.70;63.90;;;;;;4996428;28;20474;-70
2022/07/05 02:02:02;;;;;;;3.27;3.07;;;19.70;63.90;;;;;;4996353;28;20452;-70
2022/07/05 02:04:29;;;;;;;3.50;2.80;;;19.80;64.30;;;;;;4996052;28;21007;-70
2022/07/05 02:06:56;;;;;;;8.37;3.33;;;19.80;64.40;;;;;;4996205;28;20444;-70
2022/07/05 02:09:23;;;;;;;3.07;2.87;;;19.80;64.40;;;;;;4996355;28;20444;-70
2022/07/05 02:11:50;;;;;;;6.90;2.70;;;19.80;64.20;;;;;;4995894;28;21001;-70
2022/07/05 02:14:19;;;;;;;3.80;3.40;;;19.80;64.20;;;;;;4996088;28;20479;-70
2022/07/05 02:16:46;;;;;;;3.20;3.00;;;19.80;64.40;;;;;;4996105;28;20457;-70
2022/07/05 02:19:12;;;;;;;4.13;3.33;;;19.80;64.40;;;;;;4995850;28;20441;-70
2022/07/05 02:21:40;;;;;;;3.60;3.00;;;19.70;64.70;;;;;;4995907;28;20450;-70
2022/07/05 02:24:08;;;;;;;4.63;3.37;;;19.70;65.10;;;;;;4995803;28;20476;-70
2022/07/05 02:26:34;;;;;;;3.47;3.17;;;19.70;65.30;;;;;;4995853;28;20496;-70
2022/07/05 02:29:03;;;;;;;3.87;3.00;;;19.60;65.70;;;;;;4995990;28;20456;-70
2022/07/05 02:31:31;;;;;;;3.53;3.23;;;19.60;65.80;;;;;;4995598;28;20515;-70
2022/07/05 02:33:58;;;;;;;5.50;3.77;;;19.60;65.90;;;;;;4995908;28;20478;-70
2022/07/05 02:36:25;;;;;;;5.53;3.30;;;19.60;66.20;;;;;;4995702;28;20475;-70
2022/07/05 02:38:52;;;;;;;4.90;3.27;;;19.50;66.30;;;;;;4995485;28;20459;-70
2022/07/05 02:41:19;;;;;;;4.27;3.57;;;19.50;66.50;;;;;;4995537;28;20456;-70
2022/07/05 02:43:46;;;;;;;3.90;3.50;;;19.60;66.60;;;;;;4995122;28;21001;-70
2022/07/05 02:46:13;;;;;;;4.90;4.00;;;19.60;67.00;;;;;;4995262;28;20444;-70
2022/07/05 02:48:41;;;;;;;4.10;3.70;;;19.50;66.90;;;;;;4995290;28;20500;-70
2022/07/05 02:51:08;;;;;;;4.00;3.50;;;19.50;67.30;;;;;;4995216;28;20490;-70
2022/07/05 02:53:35;;;;;;;3.70;3.40;;;19.50;67.80;;;;;;4994722;28;20472;-70
2022/07/05 02:56:02;;;;;;;4.73;3.77;;;19.50;68.10;;;;;;4994799;28;20983;-71
2022/07/05 02:58:29;;;;;;;5.30;4.27;;;19.40;68.50;;;;;;4995152;28;20448;-69
2022/07/05 03:00:56;;;;;;;4.40;3.23;;;19.40;69.00;;;;;;4995195;28;20460;-69
2022/07/05 03:03:23;;;;;;;3.37;3.17;;;19.40;69.10;;;;;;4994070;28;20459;-70
2022/07/05 03:05:51;;;;;;;3.67;3.37;;;19.40;69.00;;;;;;4995014;28;20450;-69
2022/07/05 03:08:17;;;;;;;3.93;3.63;;;19.40;68.90;;;;;;4995416;28;20458;-69
2022/07/05 03:10:44;;;;;;;4.10;3.70;;;19.40;69.00;;;;;;4994899;28;20491;-70
2022/07/05 03:13:11;;;;;;;3.40;3.10;;;19.40;69.00;;;;;;4994886;28;20452;-70
2022/07/05 03:15:38;;;;;;;4.83;3.77;;;19.40;69.70;;;;;;4994724;28;20452;-70
2022/07/05 03:18:05;;;;;;;6.10;4.10;;;19.40;70.10;;;;;;4994708;28;20448;-70
2022/07/05 03:20:32;;;;;;;6.03;5.20;;;19.40;70.30;;;;;;4994844;28;20456;-70
2022/07/05 03:23:00;;;;;;;5.30;4.00;;;19.40;70.30;;;;;;4994772;28;20460;-70
2022/07/05 03:25:27;;;;;;;5.90;3.90;;;19.40;70.10;;;;;;4994605;28;20479;-70
2022/07/05 03:27:54;;;;;;;4.30;3.50;;;19.40;70.50;;;;;;4994431;28;20459;-70
2022/07/05 03:30:20;;;;;;;4.37;3.97;;;19.40;70.50;;;;;;4994576;28;20477;-70
2022/07/05 03:32:47;;;;;;;7.60;4.60;;;19.40;70.50;;;;;;4994569;28;20633;-69
2022/07/05 03:35:14;;;;;;;4.33;3.93;;;19.40;70.40;;;;;;4994713;28;20479;-69
2022/07/05 03:37:43;;;;;;;6.00;4.17;;;19.30;70.30;;;;;;4994620;28;20507;-69
2022/07/05 03:40:12;;;;;;;5.10;4.70;;;19.30;70.50;;;;;;4994175;28;20935;-70
2022/07/05 03:42:39;;;;;;;4.80;3.70;;;19.30;70.50;;;;;;4994442;28;20813;-69
2022/07/05 03:45:06;;;;;;;3.90;3.60;;;19.30;70.90;;;;;;4993940;28;21014;-70
2022/07/05 03:47:33;;;;;;;3.80;3.50;;;19.20;70.70;;;;;;4994555;28;20433;-70
2022/07/05 03:50:00;;;;;;;4.07;3.77;;;19.20;70.50;;;;;;4994557;28;20455;-70
2022/07/05 03:52:26;;;;;;;4.83;3.63;;;19.20;70.50;;;;;;4994168;28;20913;-70
2022/07/05 03:54:53;;;;;;;7.07;4.10;;;19.20;70.50;;;;;;4994353;28;20464;-70
2022/07/05 03:57:22;;;;;;;9.43;3.80;;;19.20;70.40;;;;;;4994438;28;20444;-70
2022/07/05 03:59:48;;;;;;;5.00;4.50;;;19.20;70.40;;;;;;4994382;28;20451;-70
2022/07/05 04:02:15;;;;;;;6.30;4.00;;;19.20;70.40;;;;;;4994134;28;20455;-70
2022/07/05 04:04:42;;;;;;;6.00;3.60;;;19.20;70.50;;;;;;4994461;28;20495;-70
2022/07/05 04:07:09;;;;;;;3.70;3.13;;;19.20;70.60;;;;;;4994357;28;20448;-70
2022/07/05 04:09:36;;;;;;;4.37;3.73;;;19.20;70.60;;;;;;4994131;28;20975;-70
2022/07/05 04:12:04;;;;;;;3.77;3.47;;;19.20;70.60;;;;;;4994115;28;20480;-70
2022/07/05 04:14:32;;;;;;;6.20;4.53;;;19.20;70.80;;;;;;4994047;28;20479;-70
2022/07/05 04:16:59;;;;;;;5.10;3.43;;;19.20;71.10;;;;;;4994173;28;20452;-70
2022/07/05 04:19:26;;;;;;;4.70;4.30;;;19.20;71.60;;;;;;4994232;28;20448;-70
2022/07/05 04:21:53;;;;;;;3.90;3.60;;;19.10;71.50;;;;;;4994143;28;20471;-70
2022/07/05 04:24:19;;;;;;;5.90;4.30;;;19.10;71.50;;;;;;4994201;28;20476;-70
2022/07/05 04:26:46;;;;;;;6.30;4.23;;;19.10;71.60;;;;;;4993806;28;20458;-70
2022/07/05 04:29:13;;;;;;;6.30;5.03;;;19.10;71.50;;;;;;4994233;28;20436;-70
2022/07/05 04:31:41;;;;;;;4.37;3.90;;;19.00;71.50;;;;;;4994147;28;20488;-70
2022/07/05 04:34:08;;;;;;;4.53;4.13;;;19.00;71.60;;;;;;4994441;28;20576;-70
2022/07/05 04:36:36;;;;;;;4.63;3.83;;;18.90;71.80;;;;;;4994214;28;20457;-71
2022/07/05 04:39:04;;;;;;;3.93;3.63;;;18.90;72.10;;;;;;4993873;28;20980;-70
2022/07/05 04:41:31;;;;;;;4.73;3.73;;;18.80;72.10;;;;;;4994421;28;20452;-70
2022/07/05 04:43:58;;;;;;;4.70;3.83;;;18.80;72.60;;;;;;4993403;28;21007;-70
2022/07/05 04:46:25;;;;;;;7.63;4.30;;;18.80;73.70;;;;;;4993965;28;20455;-70
2022/07/05 04:48:53;;;;;;;5.10;4.70;;;18.80;73.20;;;;;;4993897;28;20465;-70
2022/07/05 04:51:20;;;;;;;5.53;5.03;;;18.80;73.60;;;;;;4994030;28;20485;-70
2022/07/05 04:53:47;;;;;;;6.63;4.93;;;18.80;73.90;;;;;;4994003;28;20468;-70
2022/07/05 04:56:14;;;;;;;5.50;5.10;;;18.80;74.10;;;;;;4994124;28;20432;-70
2022/07/05 04:58:40;;;;;;;5.73;4.40;;;18.80;74.60;;;;;;4993871;28;20479;-71
2022/07/05 05:01:07;;;;;;;5.77;4.23;;;18.80;74.80;;;;;;4993978;28;20456;-71
2022/07/05 05:03:34;;;;;;;5.40;4.90;;;18.80;75.40;;;;;;4994134;28;20481;-71
2022/07/05 05:06:02;;;;;;;5.50;5.00;;;18.80;75.10;;;;;;4993939;28;20443;-71
2022/07/05 05:08:29;;;;;;;5.47;4.63;;;18.90;75.90;;;;;;4994165;28;20452;-69
2022/07/05 05:10:56;;;;;;;5.13;4.30;;;18.90;76.30;;;;;;4993365;28;20463;-70
2022/07/05 05:13:22;;;;;;;10.13;5.80;;;18.90;76.60;;;;;;4993808;28;20963;-70
2022/07/05 05:15:49;;;;;;;7.90;4.90;;;19.00;76.70;;;;;;4994252;28;20449;-70
2022/07/05 05:18:18;;;;;;;6.83;4.47;;;19.00;76.70;;;;;;4993865;28;20463;-70
2022/07/05 05:20:44;;;;;;;8.60;5.43;;;19.10;76.70;;;;;;4994151;28;20456;-70
2022/07/05 05:23:13;;;;;;;5.33;4.83;;;19.10;76.70;;;;;;4994190;28;20456;-70
2022/07/05 05:25:39;;;;;;;4.77;4.37;;;19.20;77.10;;;;;;4994073;28;20471;-69
2022/07/05 05:28:06;;;;;;;6.53;5.37;;;19.20;77.30;;;;;;4997622;28;20452;-70
2022/07/05 05:30:33;;;;;;;5.50;4.33;;;19.30;77.40;;;;;;4997607;28;20452;-70
2022/07/05 05:33:00;;;;;;;5.90;4.77;;;19.30;76.90;;;;;;4997202;28;21006;-70
2022/07/05 05:35:27;;;;;;;13.00;5.00;;;19.40;77.40;;;;;;4997419;28;20992;-70
2022/07/05 05:37:55;;;;;;;7.97;4.80;;;19.50;77.50;;;;;;4998159;28;20452;-70
2022/07/05 05:40:26;;;;;;;5.60;4.57;;;19.50;77.60;;;;;;4998086;28;20433;-70
2022/07/05 05:42:55;;;;;;;7.37;5.10;;;19.60;77.90;;;;;;4999377;28;20843;-70
2022/07/05 05:45:23;;;;;;;5.63;5.13;;;19.60;78.00;;;;;;4999045;28;20538;-70
2022/07/05 05:47:51;;;;;;;5.10;4.37;;;19.70;77.80;;;;;;4999490;28;20452;-70
2022/07/05 05:50:22;;;;;;;5.20;4.40;;;19.80;77.80;;;;;;4998918;28;20463;-70
2022/07/05 05:52:50;;;;;;;13.30;5.10;;;19.80;77.20;;;;;;4999472;28;20495;-70
2022/07/05 05:55:17;;;;;;;7.73;4.60;;;19.90;76.90;;;;;;4999741;28;20480;-70
2022/07/05 05:57:45;;;;;;;6.50;4.70;;;20.00;76.30;;;;;;5000494;28;20452;-70
2022/07/05 06:00:12;;;;;;;8.20;4.73;;;20.10;75.30;;;;;;4999729;28;20966;-70
2022/07/05 06:02:39;;;;;;;5.10;4.70;;;20.10;75.30;;;;;;5000130;28;20445;-70
2022/07/05 06:05:07;;;;;;;6.77;5.00;;;20.10;74.90;;;;;;4998357;28;20476;-70
2022/07/05 06:07:44;;;;;;;4.00;3.63;;;20.10;73.80;;;;;;4997450;28;20817;-70
2022/07/05 06:10:11;;;;;;;7.80;4.73;;;20.10;73.70;;;;;;4995703;28;20448;-70
2022/07/05 06:12:38;;;;;;;5.83;4.30;;;20.20;73.30;;;;;;4996042;28;20511;-70
2022/07/05 06:15:08;;;;;;;7.77;4.80;;;20.20;73.10;;;;;;4995851;28;20487;-70
2022/07/05 06:17:37;;;;;;;6.27;4.53;;;20.20;71.90;;;;;;4995869;28;20464;-70
2022/07/05 06:20:06;;;;;;;4.47;4.00;;;20.30;71.70;;;;;;4995871;28;20465;-70
2022/07/05 06:22:33;;;;;;;5.80;4.20;;;20.30;72.00;;;;;;4995730;28;20450;-70
2022/07/05 06:25:00;;;;;;;4.30;3.73;;;20.40;71.90;;;;;;4995594;28;20530;-70
2022/07/05 06:27:26;;;;;;;12.77;4.57;;;20.50;71.40;;;;;;4995515;28;20453;-70
2022/07/05 06:29:53;;;;;;;6.40;4.40;;;20.60;71.30;;;;;;4995501;28;20455;-70
2022/07/05 06:32:22;;;;;;;5.50;4.60;;;20.80;71.40;;;;;;4995643;28;20578;-70
2022/07/05 06:34:48;;;;;;;8.33;4.50;;;20.90;71.40;;;;;;4995494;28;20472;-70
2022/07/05 06:37:15;;;;;;;5.47;4.43;;;20.90;70.50;;;;;;4995614;28;20455;-70
2022/07/05 06:39:42;;;;;;;6.60;4.30;;;20.90;70.70;;;;;;4995468;28;20453;-71
2022/07/05 06:42:09;;;;;;;5.10;4.50;;;21.00;69.30;;;;;;4995713;28;20455;-71
2022/07/05 06:44:35;;;;;;;5.47;4.70;;;21.10;69.90;;;;;;4994872;28;20496;-70
2022/07/05 06:47:02;;;;;;;5.33;4.30;;;21.30;69.50;;;;;;4995478;28;20459;-70
2022/07/05 06:49:31;;;;;;;6.53;4.70;;;21.40;69.10;;;;;;4995198;28;20924;-70
2022/07/05 06:51:57;;;;;;;5.57;4.53;;;21.50;67.00;;;;;;4995218;28;20492;-70
2022/07/05 06:54:24;;;;;;;6.27;4.93;;;21.60;66.80;;;;;;4995106;28;20479;-71
2022/07/05 06:56:51;;;;;;;5.27;4.77;;;21.70;66.90;;;;;;4995339;28;20455;-71
2022/07/05 06:59:18;;;;;;;4.60;4.20;;;21.90;65.80;;;;;;4995230;28;20448;-71
2022/07/05 07:01:44;;;;;;;3.77;3.47;;;22.00;64.10;;;;;;4995109;28;20448;-71
2022/07/05 07:04:11;;;;;;;6.20;3.30;;;22.20;64.10;;;;;;4995098;28;20478;-71
2022/07/05 07:06:39;;;;;;;5.73;3.40;;;22.30;62.90;;;;;;4995067;28;20451;-71
2022/07/05 07:09:22;;;;;;;9.27;4.67;;;22.50;62.40;;;;;;4994844;28;20974;-71
2022/07/05 07:11:49;;;;;;;12.73;3.80;;;22.70;62.30;;;;;;4994858;28;20556;-71
2022/07/05 07:14:16;;;;;;;5.20;3.37;;;22.80;60.60;;;;;;4994031;28;20484;-71
2022/07/05 07:16:43;;;;;;;3.07;2.80;;;22.90;58.90;;;;;;4994541;28;20448;-71
2022/07/05 07:19:10;;;;;;;9.30;4.13;;;22.90;59.20;;;;;;4994553;28;20456;-71
2022/07/05 07:21:38;;;;;;;6.23;3.77;;;23.10;58.50;;;;;;4994556;28;20444;-71
2022/07/05 07:24:06;;;;;;;6.80;3.80;;;23.20;58.00;;;;;;4994871;28;20495;-72
2022/07/05 07:27:02;;;;;;;6.67;2.90;;;23.30;57.10;;;;;;4994506;28;20456;-72
2022/07/05 07:29:20;;;;;;;6.53;3.87;;;23.50;57.30;;;;;;4994282;28;20484;-72
2022/07/05 07:31:47;;;;;;;6.30;4.10;;;23.60;56.30;;;;;;4994585;28;20456;-72
2022/07/05 07:34:14;;;;;;;4.63;3.40;;;23.70;54.80;;;;;;4994626;28;20464;-72
2022/07/05 07:36:42;;;;;;;4.33;3.33;;;23.80;54.60;;;;;;4994777;28;20463;-72
2022/07/05 07:39:09;;;;;;;4.03;3.63;;;24.00;55.40;;;;;;4994517;28;20457;-72
2022/07/05 07:41:36;;;;;;;11.07;3.63;;;24.10;53.50;;;;;;4994575;28;20456;-72
2022/07/05 07:44:03;;;;;;;3.23;2.73;;;24.30;53.50;;;;;;4994117;28;20480;-72
2022/07/05 07:46:30;;;;;;;4.43;2.57;;;24.40;53.30;;;;;;4994392;28;20448;-72
2022/07/05 07:48:57;;;;;;;2.90;2.27;;;24.50;51.70;;;;;;4993932;28;20818;-70
2022/07/05 07:51:24;;;;;;;3.83;1.90;;;24.50;50.30;;;;;;4994371;28;20455;-70
2022/07/05 07:53:52;;;;;;;6.67;2.47;;;24.70;50.50;;;;;;4994095;28;20491;-70
2022/07/05 07:56:19;;;;;;;3.90;1.70;;;24.80;50.40;;;;;;4993841;28;20448;-70
2022/07/05 07:58:47;;;;;;;1.40;1.20;;;24.90;49.90;;;;;;4993878;28;20837;-70
2022/07/05 08:01:14;;;;;;;2.80;1.47;;;25.00;47.80;;;;;;4994151;28;20448;-71
2022/07/05 08:03:41;;;;;;;1.47;0.93;;;25.10;47.40;;;;;;4994333;28;20518;-71
2022/07/05 08:06:10;;;;;;;3.37;1.50;;;25.30;46.60;;;;;;4994057;28;20452;-71
2022/07/05 08:08:37;;;;;;;2.30;1.63;;;25.60;45.50;;;;;;4994116;28;20491;-70
2022/07/05 08:11:06;;;;;;;3.93;2.50;;;25.90;46.30;;;;;;4993892;28;20948;-71
2022/07/05 08:13:33;;;;;;;3.87;2.60;;;26.10;46.20;;;;;;4993662;28;21011;-71
2022/07/05 08:16:00;;;;;;;3.70;2.20;;;26.30;46.30;;;;;;4994048;28;20456;-71
2022/07/05 08:23:56;;;;;;;2.30;2.10;;;26.80;43.90;;;;;;4994020;28;20495;-71
2022/07/05 08:26:24;;;;;;;1.60;1.30;;;26.90;43.50;;;;;;4993978;28;20467;-71
2022/07/05 08:28:52;;;;;;;3.63;2.00;;;27.10;43.40;;;;;;4993819;28;20452;-71
2022/07/05 08:31:19;;;;;;;3.77;1.23;;;27.40;42.80;;;;;;4993830;28;20967;-71
2022/07/05 08:33:46;;;;;;;1.97;1.30;;;27.50;42.00;;;;;;4993399;28;20878;-71
2022/07/05 08:36:13;;;;;;;3.57;2.00;;;27.60;41.50;;;;;;4993832;28;20453;-71
2022/07/05 08:38:40;;;;;;;2.07;1.73;;;27.60;41.60;;;;;;4993548;28;20822;-71
2022/07/05 08:41:09;;;;;;;3.47;1.53;;;27.70;41.50;;;;;;4993915;28;20448;-71
2022/07/05 08:43:41;;;;;;;1.87;1.57;;;27.70;41.90;;;;;;4993480;28;20523;-71
2022/07/05 08:46:10;;;;;;;2.23;1.80;;;27.80;41.00;;;;;;4993804;28;20787;-71
2022/07/05 08:48:41;;;;;;;3.43;1.67;;;27.80;40.60;;;;;;4993758;28;20456;-71
2022/07/05 08:51:12;;;;;;;3.53;1.73;;;27.90;39.50;;;;;;4993827;28;20444;-71
2022/07/05 08:53:40;;;;;;;1.73;1.57;;;27.70;39.30;;;;;;4993690;28;20488;-72
2022/07/05 08:56:09;;;;;;;4.50;1.90;;;27.60;40.50;;;;;;4993577;28;20449;-71
2022/07/05 08:58:38;;;;;;;3.37;1.57;;;27.60;41.40;;;;;;4993705;28;20460;-71
2022/07/05 09:01:05;;;;;;;3.10;1.90;;;27.50;41.40;;;;;;4993960;28;20959;-72
2022/07/05 09:03:34;;;;;;;4.50;2.30;;;27.70;41.10;;;;;;4997138;28;20468;-72
2022/07/05 09:06:02;;;;;;;4.70;1.93;;;27.80;40.60;;;;;;4996870;28;20452;-71
2022/07/05 09:08:32;;;;;;;7.00;1.60;;;28.10;39.70;;;;;;4997425;28;20460;-71
2022/07/05 09:11:02;;;;;;;1.87;1.70;;;28.40;39.50;;;;;;4997191;28;20892;-72
2022/07/05 09:13:29;;;;;;;4.77;2.10;;;28.40;38.30;;;;;;4997165;28;20651;-72
2022/07/05 09:15:57;;;;;;;3.10;2.03;;;28.40;38.20;;;;;;4979427;28;20964;-72
2022/07/05 09:18:41;;;;;;;4.83;2.37;;;28.30;37.90;;;;;;4997122;28;20452;-71
2022/07/05 09:21:18;;;;;;;3.00;2.10;;;28.20;37.40;;;;;;4996665;28;20448;-72
2022/07/05 09:23:46;;;;;;;5.23;1.70;;;28.20;38.50;;;;;;4996823;28;20471;-72
2022/07/05 09:26:13;;;;;;;4.40;1.90;;;28.30;38.50;;;;;;4996627;28;20982;-72
2022/07/05 09:28:55;;;;;;;4.70;1.60;;;28.30;39.00;;;;;;4997005;28;20802;-72
2022/07/05 09:31:31;;;;;;;2.97;1.47;;;28.40;39.80;;;;;;4996620;28;20435;-72
2022/07/05 09:34:06;;;;;;;3.50;2.03;;;28.40;39.40;;;;;;4996721;28;20501;-71
2022/07/05 09:36:49;;;;;;;3.60;1.60;;;28.40;39.20;;;;;;4997076;28;20432;-71
2022/07/05 09:39:16;;;;;;;4.03;1.83;;;28.40;38.00;;;;;;4996792;28;20459;-71
2022/07/05 09:41:43;;;;;;;3.97;1.97;;;28.60;39.90;;;;;;4996875;28;20437;-72
2022/07/05 09:44:10;;;;;;;3.23;2.33;;;29.00;39.20;;;;;;4996265;28;20588;-72
2022/07/05 09:46:38;;;;;;;3.63;2.13;;;29.10;37.50;;;;;;4996333;28;20835;-72
2022/07/05 09:49:05;;;;;;;2.23;2.03;;;28.90;37.90;;;;;;4996207;28;20452;-71
2022/07/05 09:51:49;;;;;;;5.13;2.10;;;28.50;37.80;;;;;;4996440;28;20459;-71
2022/07/05 09:54:15;;;;;;;4.80;2.33;;;28.20;39.30;;;;;;4996153;28;20550;-71
2022/07/05 09:56:46;;;;;;;2.50;1.53;;;28.20;40.60;;;;;;4996437;28;20470;-71
2022/07/05 09:59:15;;;;;;;6.83;2.10;;;28.30;39.00;;;;;;4996393;28;20444;-71
2022/07/05 10:01:43;;;;;;;3.43;1.90;;;28.20;38.80;;;;;;4996470;28;20460;-71
2022/07/05 10:04:11;;;;;;;2.70;1.70;;;28.10;38.30;;;;;;4996502;28;20468;-71
2022/07/05 10:06:37;;;;;;;4.60;1.60;;;27.90;38.80;;;;;;4996432;28;20494;-72
2022/07/05 10:09:05;;;;;;;1.93;1.23;;;27.70;38.00;;;;;;4996394;28;20971;-71
2022/07/05 10:11:32;;;;;;;2.80;1.47;;;27.70;39.00;;;;;;4995655;28;20803;-72
2022/07/05 10:14:02;;;;;;;2.93;1.37;;;27.90;38.80;;;;;;4995973;28;20506;-72
2022/07/05 10:16:29;;;;;;;2.90;1.40;;;28.10;37.10;;;;;;4996337;28;20440;-71
2022/07/05 10:18:57;;;;;;;2.37;1.40;;;28.00;36.30;;;;;;4996198;28;20456;-71
2022/07/05 10:21:26;;;;;;;5.33;1.63;;;27.80;36.80;;;;;;4995702;28;20459;-71
2022/07/05 10:23:55;;;;;;;1.53;1.10;;;27.50;37.20;;;;;;4995711;28;20976;-71
2022/07/05 10:26:23;;;;;;;2.57;1.07;;;27.40;39.10;;;;;;4996013;28;20534;-71
2022/07/05 10:28:52;;;;;;;3.20;1.70;;;27.50;37.00;;;;;;4996042;28;20542;-71
2022/07/05 10:31:19;;;;;;;2.10;1.40;;;28.00;38.80;;;;;;4995651;28;20456;-71
2022/07/05 10:33:46;;;;;;;2.10;1.20;;;28.70;36.90;;;;;;4995643;28;20554;-71
2022/07/05 10:36:15;;;;;;;1.70;1.50;;;29.60;35.00;;;;;;4995818;28;20455;-71
2022/07/05 10:38:45;;;;;;;4.30;1.43;;;30.20;31.30;;;;;;4995726;28;20480;-72
2022/07/05 10:41:15;;;;;;;3.23;1.60;;;30.50;31.90;;;;;;4996432;28;20456;-72
2022/07/05 10:43:42;;;;;;;1.83;1.20;;;31.10;31.80;;;;;;4995569;28;20487;-71
2022/07/05 10:46:09;;;;;;;4.17;1.83;;;31.90;31.50;;;;;;4995708;28;20459;-72
2022/07/05 10:48:36;;;;;;;3.67;1.93;;;32.80;29.30;;;;;;4995824;28;20509;-72
2022/07/05 10:51:16;;;;;;;2.90;1.40;;;33.40;28.50;;;;;;4995674;28;20463;-72
2022/07/05 10:54:02;;;;;;;3.00;1.73;;;33.50;28.90;;;;;;4995216;28;20491;-72
2022/07/05 10:56:29;;;;;;;1.73;1.63;;;34.00;28.40;;;;;;4995394;28;20455;-72
2022/07/05 10:59:06;;;;;;;5.07;1.77;;;33.90;27.00;;;;;;4995013;28;20963;-72
2022/07/05 11:01:38;;;;;;;1.67;1.20;;;33.60;27.70;;;;;;4995366;28;20482;-72
2022/07/05 11:04:29;;;;;;;2.60;1.57;;;33.80;28.40;;;;;;4994895;28;20825;-71
2022/07/05 11:06:58;;;;;;;1.90;1.40;;;34.70;27.80;;;;;;4995142;28;20502;-71
2022/07/05 11:09:25;;;;;;;4.33;1.60;;;35.70;26.50;;;;;;4995066;28;20465;-72
2022/07/05 11:12:12;;;;;;;1.63;1.20;;;35.90;24.70;;;;;;4995181;28;20447;-72
2022/07/05 11:14:50;;;;;;;5.00;1.40;;;35.20;24.40;;;;;;4994759;28;20494;-72
2022/07/05 11:17:30;;;;;;;1.60;1.20;;;34.20;25.60;;;;;;4994965;28;20462;-72
2022/07/05 11:20:12;;;;;;;2.20;1.47;;;34.00;27.80;;;;;;4995822;28;20440;-72
2022/07/05 11:22:43;;;;;;;2.73;1.77;;;34.00;26.30;;;;;;4994836;28;20432;-72
2022/07/05 11:25:12;;;;;;;2.20;1.60;;;33.40;25.80;;;;;;4993597;28;20839;-72
2022/07/05 11:28:07;;;;;;;2.73;1.30;;;32.80;27.10;;;;;;4994272;28;20466;-72
2022/07/05 11:30:52;;;;;;;3.23;1.60;;;32.10;28.00;;;;;;4994743;28;20428;-72
2022/07/05 11:33:34;;;;;;;2.07;1.30;;;31.50;29.00;;;;;;4994422;28;20479;-72
2022/07/05 11:36:01;;;;;;;2.20;1.30;;;31.00;30.40;;;;;;4995365;28;20448;-72
2022/07/05 11:38:30;;;;;;;3.00;1.30;;;30.60;30.80;;;;;;4994106;28;20944;-72
2022/07/05 11:41:10;;;;;;;2.20;2.00;;;30.30;32.00;;;;;;4994432;28;20479;-72
2022/07/05 11:43:38;;;;;;;2.40;1.50;;;30.00;31.30;;;;;;4994164;28;20483;-72
2022/07/05 11:46:05;;;;;;;3.27;1.27;;;29.90;32.80;;;;;;4994100;28;20436;-72
2022/07/05 11:48:32;;;;;;;2.57;1.80;;;30.00;33.80;;;;;;4994687;28;20452;-72
2022/07/05 11:50:59;;;;;;;1.73;1.63;;;30.30;32.90;;;;;;4994297;28;20466;-72
2022/07/05 11:53:27;;;;;;;3.87;1.70;;;30.50;31.40;;;;;;4993894;28;20498;-72
2022/07/05 11:55:57;;;;;;;3.20;1.40;;;30.60;30.80;;;;;;4994403;28;20437;-71
2022/07/05 11:58:32;;;;;;;1.70;1.57;;;31.00;31.60;;;;;;4994679;28;20440;-71
2022/07/05 12:00:59;;;;;;;4.20;1.77;;;31.90;31.30;;;;;;4994881;28;20436;-71
2022/07/05 12:03:26;;;;;;;1.83;1.57;;;32.70;27.70;;;;;;4994233;28;21029;-72
2022/07/05 12:05:53;;;;;;;1.97;1.77;;;33.70;27.70;;;;;;4994474;28;20459;-72
2022/07/05 12:08:23;;;;;;;2.13;1.93;;;34.50;26.80;;;;;;4993948;28;20508;-72
2022/07/05 12:13:46;;;;;;;3.13;1.77;;;36.20;23.80;;;;;;4958727;28;20503;-72
2022/07/05 12:16:14;;;;;;;4.70;2.10;;;37.10;23.60;;;;;;4993949;28;20520;-72
2022/07/05 12:18:51;;;;;;;2.40;1.77;;;37.60;22.90;;;;;;4993674;28;20456;-72
2022/07/05 12:21:20;;;;;;;3.50;1.50;;;38.40;24.10;;;;;;4993728;28;20208;-72
2022/07/05 12:23:47;;;;;;;2.97;1.88;;;39.10;21.60;;;;;;4993788;28;20223;-72
2022/07/05 12:26:15;;;;;;;3.05;1.80;;;39.20;21.80;;;;;;4994051;28;20209;-72
2022/07/05 12:28:42;;;;;;;2.22;1.50;;;39.30;21.90;;;;;;4993987;28;20227;-72
2022/07/05 12:31:18;;;;;;;5.22;1.92;;;39.80;21.40;;;;;;4993798;28;20211;-72
2022/07/05 12:33:45;;;;;;;2.22;1.60;;;40.00;21.00;;;;;;4993717;28;20227;-72
2022/07/05 12:36:12;;;;;;;2.85;1.40;;;40.00;20.40;;;;;;4996461;28;20204;-72
2022/07/05 12:38:39;;;;;;;1.88;1.52;;;40.20;20.00;;;;;;4997945;28;20216;-72
2022/07/05 12:41:06;;;;;;;2.35;2.13;;;40.00;20.40;;;;;;4997676;28;20208;-72
2022/07/05 12:43:33;;;;;;;3.30;1.67;;;40.00;20.30;;;;;;4997349;28;20255;-72
2022/07/05 12:46:02;;;;;;;2.72;1.83;;;40.30;20.10;;;;;;4997561;28;20216;-73
2022/07/05 12:48:34;;;;;;;5.00;1.60;;;40.50;19.70;;;;;;4997450;28;20577;-73
2022/07/05 12:51:02;;;;;;;3.83;1.90;;;40.30;20.20;;;;;;4997683;28;20204;-73
2022/07/05 12:59:02;;;;;;;4.03;1.63;;;40.40;20.10;;;;;;4997322;28;20184;-72
2022/07/05 13:01:31;;;;;;;5.70;1.77;;;40.60;20.20;;;;;;4997926;28;20196;-72
2022/07/05 13:04:05;;;;;;;4.60;1.70;;;40.00;19.50;;;;;;4997427;28;20220;-72
2022/07/05 13:06:48;;;;;;;2.47;1.90;;;39.20;20.50;;;;;;4997400;28;20188;-72